createdAt,value
2023-02-17T00:01:05.801Z,115
2023-02-17T00:16:05.490Z,124
2023-02-17T00:31:05.691Z,122
2023-02-17T00:46:06.425Z,116
2023-02-17T01:01:05.787Z,105
2023-02-17T01:16:06.439Z,96
2023-02-17T01:31:06.226Z,95
2023-02-17T01:46:06.088Z,103
2023-02-17T02:01:05.620Z,98
2023-02-17T02:16:06.456Z,93
2023-02-17T02:31:05.907Z,93
2023-02-17T02:46:05.976Z,94
2023-02-17T03:01:05.658Z,107
2023-02-17T03:16:06.676Z,108
2023-02-17T03:31:05.215Z,111
2023-02-17T03:46:06.519Z,106
2023-02-17T04:01:06.186Z,102
2023-02-17T04:16:06.437Z,91
2023-02-17T04:31:06.186Z,88
2023-02-17T04:46:06.806Z,89
2023-02-17T05:01:04.965Z,84
2023-02-17T05:16:06.208Z,83
2023-02-17T05:31:05.545Z,79
2023-02-17T05:46:06.662Z,88
2023-02-17T06:01:05.320Z,92
2023-02-17T06:16:05.445Z,80
2023-02-17T06:31:05.116Z,83
2023-02-17T06:46:05.722Z,88
2023-02-17T07:01:05.272Z,85
2023-02-17T07:16:06.349Z,75
2023-02-17T07:31:05.629Z,86
2023-02-17T07:46:05.963Z,81
2023-02-17T08:01:05.610Z,74
2023-02-17T08:16:05.867Z,80
2023-02-17T08:31:05.094Z,72
2023-02-17T08:46:05.840Z,67
2023-02-17T09:01:05.670Z,69
2023-02-17T09:16:05.745Z,63
2023-02-17T09:31:05.471Z,61
2023-02-17T09:46:05.854Z,59
2023-02-17T10:01:05.616Z,60
2023-02-17T10:16:06.342Z,57
2023-02-17T10:31:05.821Z,62
2023-02-17T10:46:06.891Z,58
2023-02-17T11:01:06.074Z,54
2023-02-17T11:16:06.516Z,55
2023-02-17T11:31:06.301Z,68
2023-02-17T11:46:06.484Z,54
2023-02-17T12:01:06.029Z,52
2023-02-17T12:16:06.023Z,74
2023-02-17T12:31:05.804Z,64
2023-02-17T12:46:06.421Z,48
2023-02-17T13:01:07.708Z,52
2023-02-17T13:16:05.996Z,56
2023-02-17T13:31:06.097Z,52
2023-02-17T13:46:06.707Z,50
2023-02-17T14:01:05.505Z,50
2023-02-17T14:16:06.822Z,50
2023-02-17T14:31:05.511Z,45
2023-02-17T14:46:06.469Z,50
2023-02-17T15:01:05.834Z,50
2023-02-17T15:16:07.024Z,53
2023-02-17T15:31:05.729Z,51
2023-02-17T15:46:06.199Z,50
2023-02-17T16:01:05.380Z,64
2023-02-17T16:16:06.493Z,56
2023-02-17T16:31:05.078Z,45
2023-02-17T16:46:05.348Z,47
2023-02-17T17:01:05.773Z,49
2023-02-17T17:16:06.181Z,39
2023-02-17T17:31:05.030Z,41
2023-02-17T17:46:06.640Z,41
2023-02-17T18:01:05.602Z,37
2023-02-17T18:16:06.039Z,42
2023-02-17T18:31:05.626Z,43
2023-02-17T18:46:05.862Z,42
2023-02-17T19:01:05.407Z,45
2023-02-17T19:16:07.268Z,42
2023-02-17T19:31:06.111Z,46
2023-02-17T19:46:05.838Z,48
2023-02-17T20:01:05.091Z,47
2023-02-17T20:16:05.694Z,48
2023-02-17T20:31:05.679Z,40
2023-02-17T20:46:05.818Z,39
2023-02-17T21:01:05.022Z,41
2023-02-17T21:16:05.779Z,43
2023-02-17T21:31:05.317Z,21
2023-02-17T21:46:06.618Z,20
2023-02-17T22:01:05.659Z,22
2023-02-17T22:16:05.344Z,16
2023-02-17T22:31:05.613Z,15
2023-02-17T22:46:05.627Z,17
2023-02-17T23:01:05.943Z,19
2023-02-17T23:16:04.899Z,21
2023-02-17T23:31:06.234Z,20
2023-02-17T23:46:06.204Z,19
